createdAt,value
2019-04-25T00:20:16.000Z,7.03
2019-04-25T00:34:41.000Z,6.43
2019-04-25T01:08:16.000Z,5.38
2019-04-25T01:17:52.000Z,5.11
2019-04-25T01:27:26.000Z,4.89
2019-04-25T01:41:50.000Z,4.42
2019-04-25T01:51:26.000Z,4.14
2019-04-25T02:05:50.000Z,3.82
2019-04-25T02:15:25.000Z,3.72
2019-04-25T02:34:37.000Z,3.30
2019-04-25T02:49:01.000Z,2.99
2019-04-25T03:08:13.000Z,2.72
2019-04-25T03:27:25.000Z,2.40
2019-04-25T03:41:49.000Z,2.37
2019-04-25T04:01:01.000Z,2.11
2019-04-25T04:20:13.000Z,2.07
2019-04-25T04:34:36.000Z,2.26
2019-04-25T04:53:50.000Z,4.13
2019-04-25T05:08:15.000Z,5.91
2019-04-25T05:27:30.000Z,7.73
2019-04-25T05:41:56.000Z,10.40
2019-04-25T06:01:11.000Z,13.55
2019-04-25T06:20:27.000Z,16.35
2019-04-25T06:34:54.000Z,18.47
2019-04-25T06:54:09.000Z,20.73
2019-04-25T07:03:47.000Z,22.06
2019-04-25T07:08:35.000Z,22.45
2019-04-25T07:27:49.000Z,22.84
2019-04-25T07:32:38.000Z,22.83
2019-04-25T07:37:25.000Z,23.13
2019-04-25T07:42:14.000Z,23.79
2019-04-25T07:47:03.000Z,24.43
2019-04-25T07:51:52.000Z,24.72
2019-04-25T07:56:40.000Z,24.72
2019-04-25T08:01:28.000Z,24.79
2019-04-25T08:06:17.000Z,25.33
2019-04-25T08:11:06.000Z,26.22
2019-04-25T08:15:55.000Z,26.83
2019-04-25T08:20:43.000Z,26.44
2019-04-25T08:25:31.000Z,26.66
2019-04-25T08:30:21.000Z,26.96
2019-04-25T08:35:10.000Z,27.33
2019-04-25T08:39:58.000Z,26.97
2019-04-25T08:44:46.000Z,26.83
2019-04-25T08:49:34.000Z,26.97
2019-04-25T08:54:22.000Z,27.04
2019-04-25T08:59:10.000Z,26.85
2019-04-25T09:03:59.000Z,26.88
2019-04-25T09:13:37.000Z,26.95
2019-04-25T09:18:21.000Z,27.10
2019-04-25T09:23:11.000Z,27.84
2019-04-25T09:27:59.000Z,28.62
2019-04-25T09:32:46.000Z,28.19
2019-04-25T09:37:35.000Z,27.98
2019-04-25T09:42:23.000Z,28.01
2019-04-25T09:47:12.000Z,28.38
2019-04-25T09:52:01.000Z,28.80
2019-04-25T09:56:49.000Z,29.32
2019-04-25T10:01:37.000Z,29.24
2019-04-25T10:06:26.000Z,29.40
2019-04-25T10:11:17.000Z,29.54
2019-04-25T10:16:02.000Z,29.68
2019-04-25T10:20:50.000Z,29.50
2019-04-25T10:25:38.000Z,29.35
2019-04-25T10:30:27.000Z,29.70
2019-04-25T10:35:15.000Z,30.28
2019-04-25T10:40:04.000Z,30.90
2019-04-25T10:44:52.000Z,30.81
2019-04-25T10:49:41.000Z,31.11
2019-04-25T10:54:30.000Z,31.46
2019-04-25T10:59:18.000Z,31.54
2019-04-25T11:04:07.000Z,32.24
2019-04-25T11:08:56.000Z,32.63
2019-04-25T11:13:44.000Z,32.89
2019-04-25T11:18:33.000Z,33.09
2019-04-25T11:23:22.000Z,33.63
2019-04-25T11:28:10.000Z,33.97
2019-04-25T11:32:58.000Z,33.46
2019-04-25T11:37:46.000Z,32.66
2019-04-25T11:42:34.000Z,32.82
2019-04-25T11:47:24.000Z,34.01
2019-04-25T11:59:32.000Z,34.67
2019-04-25T12:04:06.000Z,34.31
2019-04-25T12:08:54.000Z,33.30
2019-04-25T12:10:47.000Z,32.97
2019-04-25T12:15:23.000Z,32.22
2019-04-25T12:20:11.000Z,31.89
2019-04-25T12:24:59.000Z,31.58
2019-04-25T12:29:47.000Z,32.05
2019-04-25T12:34:36.000Z,32.63
2019-04-25T12:39:25.000Z,32.69
2019-04-25T12:44:13.000Z,32.32
2019-04-25T12:49:02.000Z,31.30
2019-04-25T12:53:47.000Z,29.99
2019-04-25T12:58:36.000Z,29.72
2019-04-25T13:03:24.000Z,29.76
2019-04-25T13:08:57.000Z,30.53
2019-04-25T13:13:32.000Z,30.62
2019-04-25T13:18:19.000Z,30.20
2019-04-25T13:23:06.000Z,29.23
2019-04-25T13:27:54.000Z,28.09
2019-04-25T13:32:43.000Z,28.70
2019-04-25T13:37:32.000Z,29.83
2019-04-25T13:42:21.000Z,30.27
2019-04-25T13:47:09.000Z,30.65
2019-04-25T13:51:58.000Z,30.85
2019-04-25T13:56:45.000Z,29.69
2019-04-25T14:01:32.000Z,28.78
2019-04-25T14:06:21.000Z,28.49
2019-04-25T14:11:08.000Z,27.58
2019-04-25T14:15:56.000Z,27.16
2019-04-25T14:20:44.000Z,26.77
2019-04-25T14:25:32.000Z,26.84
2019-04-25T14:30:21.000Z,26.77
2019-04-25T14:35:09.000Z,26.78
2019-04-25T14:40:01.000Z,26.76
2019-04-25T14:44:44.000Z,26.64
2019-04-25T14:49:33.000Z,26.62
2019-04-25T14:54:22.000Z,26.46
2019-04-25T14:59:09.000Z,26.30
2019-04-25T15:03:57.000Z,25.85
2019-04-25T15:08:45.000Z,25.47
2019-04-25T15:13:33.000Z,25.36
2019-04-25T15:18:22.000Z,25.66
2019-04-25T15:23:10.000Z,26.47
2019-04-25T15:27:59.000Z,26.80
2019-04-25T15:32:47.000Z,26.76
2019-04-25T15:37:35.000Z,26.93
2019-04-25T15:42:23.000Z,26.59
2019-04-25T15:47:11.000Z,25.94
2019-04-25T15:51:59.000Z,25.57
2019-04-25T15:56:47.000Z,25.32
2019-04-25T16:01:35.000Z,25.07
2019-04-25T16:06:23.000Z,25.08
2019-04-25T16:11:11.000Z,24.91
2019-04-25T16:15:59.000Z,24.58
2019-04-25T16:20:47.000Z,24.46
2019-04-25T16:25:37.000Z,24.34
2019-04-25T16:30:23.000Z,24.20
2019-04-25T16:35:11.000Z,24.12
2019-04-25T16:40:00.000Z,24.09
2019-04-25T16:44:48.000Z,23.99
2019-04-25T16:49:36.000Z,23.85
2019-04-25T16:54:24.000Z,23.70
2019-04-25T16:59:12.000Z,23.50
2019-04-25T17:04:00.000Z,23.28
2019-04-25T17:08:48.000Z,23.04
2019-04-25T17:13:36.000Z,22.79
2019-04-25T17:18:24.000Z,22.57
2019-04-25T17:23:12.000Z,22.37
2019-04-25T17:28:00.000Z,22.22
2019-04-25T17:32:48.000Z,22.06
2019-04-25T17:37:36.000Z,21.93
2019-04-25T17:42:25.000Z,21.75
2019-04-25T17:47:13.000Z,21.55
2019-04-25T17:52:00.000Z,21.29
2019-04-25T17:56:48.000Z,21.00
2019-04-25T18:01:36.000Z,20.70
2019-04-25T18:06:24.000Z,20.37
2019-04-25T18:11:11.000Z,20.03
2019-04-25T18:15:59.000Z,19.62
2019-04-25T18:20:47.000Z,19.21
2019-04-25T18:25:35.000Z,18.82
2019-04-25T18:30:22.000Z,18.41
2019-04-25T18:35:10.000Z,18.00
2019-04-25T18:39:58.000Z,17.58
2019-04-25T18:44:46.000Z,17.19
2019-04-25T18:49:34.000Z,16.78
2019-04-25T18:54:22.000Z,16.33
2019-04-25T18:59:10.000Z,15.96
2019-04-25T19:03:58.000Z,15.68
2019-04-25T19:08:46.000Z,15.38
2019-04-25T19:13:34.000Z,15.08
2019-04-25T19:18:21.000Z,14.78
2019-04-25T19:23:09.000Z,14.50
2019-04-25T19:27:57.000Z,14.29
2019-04-25T19:32:45.000Z,14.04
2019-04-25T19:37:33.000Z,13.73
2019-04-25T19:42:20.000Z,13.44
2019-04-25T19:47:08.000Z,13.18
2019-04-25T19:51:56.000Z,12.95
2019-04-25T19:56:44.000Z,12.74
2019-04-25T20:01:32.000Z,12.58
2019-04-25T20:06:20.000Z,12.41
2019-04-25T20:11:08.000Z,12.21
2019-04-25T20:15:56.000Z,12.02
2019-04-25T20:20:44.000Z,11.87
2019-04-25T20:25:32.000Z,11.74
2019-04-25T20:30:21.000Z,11.58
2019-04-25T20:35:08.000Z,11.40
2019-04-25T20:39:56.000Z,11.20
2019-04-25T20:44:44.000Z,11.01
2019-04-25T20:49:32.000Z,10.83
2019-04-25T20:54:20.000Z,10.65
2019-04-25T20:59:07.000Z,10.45
2019-04-25T21:03:55.000Z,10.30
2019-04-25T21:08:43.000Z,10.18
2019-04-25T21:13:36.000Z,10.04
2019-04-25T21:18:18.000Z,9.92
2019-04-25T21:23:06.000Z,9.81
2019-04-25T21:27:54.000Z,9.64
2019-04-25T21:32:42.000Z,9.51
2019-04-25T21:37:29.000Z,9.42
2019-04-25T21:42:17.000Z,9.33
2019-04-25T21:47:05.000Z,9.20
2019-04-25T21:51:54.000Z,9.11
2019-04-25T21:56:41.000Z,9.02
2019-04-25T22:01:29.000Z,8.93
2019-04-25T22:06:17.000Z,8.88
2019-04-25T22:11:05.000Z,8.84
2019-04-25T22:15:53.000Z,8.77
2019-04-25T22:20:41.000Z,8.66
2019-04-25T22:25:29.000Z,8.57
2019-04-25T22:30:17.000Z,8.55
2019-04-25T22:35:05.000Z,8.50
2019-04-25T22:39:53.000Z,8.41
2019-04-25T22:44:41.000Z,8.27
2019-04-25T22:49:29.000Z,8.13
2019-04-25T22:54:17.000Z,7.96
2019-04-25T22:59:05.000Z,7.81
2019-04-25T23:03:52.000Z,7.70
2019-04-25T23:08:40.000Z,7.57
2019-04-25T23:13:28.000Z,7.46
2019-04-25T23:18:16.000Z,7.33
2019-04-25T23:23:04.000Z,7.19
2019-04-25T23:27:52.000Z,7.09
2019-04-25T23:32:40.000Z,6.98
2019-04-25T23:37:28.000Z,6.87
2019-04-25T23:42:16.000Z,6.80
2019-04-25T23:47:03.000Z,6.73
2019-04-25T23:51:51.000Z,6.55
2019-04-25T23:56:41.000Z,6.39
